Time;durP1;ratioP1;P1;durP2;ratioP2;P2;SDS_P1;SDS_P2;PMS_P1;PMS_P2;Temp;Humidity;BMP_temperature;BMP_pressure;BME280_temperature;BME280_humidity;BME280_pressure;Samples;Min_cycle;Max_cycle;Signal;HPM_P1;HPM_P2
2023/03/07 00:01:38;;;;;;;16.97;7.03;;;;;;;-145.69;100.00;52551.31;5113945;28;20579;-85
2023/03/07 00:04:06;;;;;;;15.33;6.73;;;;;;;-145.69;100.00;52604.81;5113949;28;20207;-86
2023/03/07 00:06:33;;;;;;;16.47;7.67;;;;;;;-145.69;100.00;52563.22;5114054;28;20413;-86
2023/03/07 00:09:04;;;;;;;15.43;6.73;;;;;;;-145.69;100.00;52535.47;5114249;28;20199;-80
2023/03/07 00:11:32;;;;;;;17.33;6.83;;;;;;;-145.69;100.00;52547.38;5114148;28;20216;-85
2023/03/07 00:13:59;;;;;;;16.47;6.90;;;;;;;-145.69;100.00;52577.06;5114213;28;20197;-86
2023/03/07 00:16:25;;;;;;;15.20;6.47;;;;;;;-145.69;100.00;52569.16;5110293;28;20674;-85
2023/03/07 00:18:52;;;;;;;13.53;6.40;;;;;;;-145.69;100.00;52586.97;5113476;28;20206;-85
2023/03/07 00:21:21;;;;;;;16.00;6.07;;;;;;;-145.69;100.00;52559.25;5112668;28;20217;-85
2023/03/07 00:23:52;;;;;;;19.93;7.30;;;;;;;-145.69;100.00;52569.16;5118052;28;20211;-85
2023/03/07 00:26:21;;;;;;;16.63;6.70;;;;;;;-145.69;100.00;52541.44;5117979;28;20269;-85
2023/03/07 00:28:50;;;;;;;15.53;6.27;;;;;;;-145.69;100.00;52581.03;5118224;28;20204;-85
2023/03/07 00:31:17;;;;;;;16.17;6.73;;;;;;;-145.69;100.00;52547.38;5117720;28;20660;-85
2023/03/07 00:33:44;;;;;;;15.87;7.07;;;;;;;-145.69;100.00;52559.25;5118027;28;20209;-85
2023/03/07 00:36:12;;;;;;;14.70;6.70;;;;;;;-145.69;100.00;52585.00;5117547;28;20208;-85
2023/03/07 00:38:40;;;;;;;15.63;6.33;;;;;;;-145.69;100.00;52555.28;5117956;28;20193;-85
2023/03/07 00:41:09;;;;;;;14.90;6.33;;;;;;;-145.69;100.00;52588.97;5117342;28;20240;-86
2023/03/07 00:43:36;;;;;;;20.37;7.73;;;;;;;-145.69;100.00;52596.88;5117606;28;20205;-85
2023/03/07 00:46:05;;;;;;;19.27;6.57;;;;;;;-145.69;100.00;52577.06;5117275;28;20190;-85
2023/03/07 00:48:33;;;;;;;16.00;6.53;;;;;;;-145.69;100.00;52579.06;5117784;28;20212;-86
2023/03/07 00:51:00;;;;;;;16.47;6.33;;;;;;;-145.69;100.00;52539.44;5117400;28;20197;-84
2023/03/07 00:53:27;;;;;;;13.57;6.23;;;;;;;-145.69;100.00;52577.06;5117638;28;20205;-85
2023/03/07 00:55:55;;;;;;;12.93;6.23;;;;;;;-145.69;100.00;52557.28;5117081;28;20212;-85
2023/03/07 00:58:23;;;;;;;20.23;6.83;;;;;;;-145.69;100.00;52573.13;5116730;28;20250;-85
2023/03/07 01:00:50;;;;;;;15.80;6.60;;;;;;;-145.69;100.00;52594.91;5117152;28;20225;-84
2023/03/07 01:03:18;;;;;;;19.87;7.03;;;;;;;-145.69;100.00;52547.38;5117207;28;20197;-84
2023/03/07 01:05:45;;;;;;;17.63;6.60;;;;;;;-145.69;100.00;52533.50;5116718;28;20233;-85
2023/03/07 01:08:12;;;;;;;14.10;6.13;;;;;;;-145.69;100.00;52579.06;5117207;28;20197;-85
2023/03/07 01:10:39;;;;;;;14.87;6.60;;;;;;;-145.69;100.00;52571.13;5116994;28;20254;-85
2023/03/07 01:13:05;;;;;;;14.87;6.37;;;;;;;-145.69;100.00;52583.00;5116813;28;20203;-84
2023/03/07 01:15:32;;;;;;;13.93;5.73;;;;;;;-145.69;100.00;52569.16;5116975;28;20197;-85
2023/03/07 01:17:59;;;;;;;15.73;6.60;;;;;;;-145.69;100.00;52561.22;5116965;28;20241;-85
2023/03/07 01:20:27;;;;;;;14.00;6.53;;;;;;;-145.69;100.00;52592.91;5116523;28;20248;-85
2023/03/07 01:22:53;;;;;;;13.03;6.00;;;;;;;-145.69;100.00;52543.41;5116860;28;20722;-85
2023/03/07 01:25:20;;;;;;;17.73;6.93;;;;;;;-145.69;100.00;52563.22;5116963;28;20205;-85
2023/03/07 01:27:46;;;;;;;15.43;6.43;;;;;;;-145.69;100.00;52561.22;5116685;28;20197;-85
2023/03/07 01:30:13;;;;;;;14.00;6.43;;;;;;;-145.69;100.00;52531.53;5116811;28;20212;-85
2023/03/07 01:32:40;;;;;;;15.47;6.63;;;;;;;-145.69;100.00;52549.34;5116469;28;20216;-85
2023/03/07 01:35:07;;;;;;;16.03;6.57;;;;;;;-145.69;100.00;52545.38;5115174;28;20197;-85
2023/03/07 01:37:35;;;;;;;15.27;6.67;;;;;;;-145.69;100.00;52579.06;5116532;28;20198;-85
2023/03/07 01:40:03;;;;;;;13.40;6.67;;;;;;;-145.69;100.00;52551.31;5116563;28;20212;-85
2023/03/07 01:42:31;;;;;;;15.37;6.90;;;;;;;-145.69;100.00;52535.47;5116037;28;20592;-85
2023/03/07 01:45:00;;;;;;;19.70;7.00;;;;;;;-145.69;100.00;52575.09;5116062;28;20221;-85
2023/03/07 01:47:26;;;;;;;17.13;6.73;;;;;;;-145.69;100.00;52559.25;5116214;28;20297;-85
2023/03/07 01:49:54;;;;;;;17.53;6.63;;;;;;;-145.69;100.00;52565.19;5116349;28;20201;-85
2023/03/07 01:52:24;;;;;;;15.67;6.53;;;;;;;-145.69;100.00;52588.97;5116291;28;20208;-85
2023/03/07 01:54:55;;;;;;;14.67;6.90;;;;;;;-145.69;100.00;52547.38;5116106;28;20196;-85
2023/03/07 01:57:27;;;;;;;15.63;6.60;;;;;;;-145.69;100.00;52543.41;5116233;28;20556;-84
2023/03/07 01:59:56;;;;;;;18.53;7.30;;;;;;;-145.69;100.00;52551.31;5116029;28;20197;-85
2023/03/07 02:02:24;;;;;;;18.77;7.30;;;;;;;-145.69;100.00;52543.41;5115996;28;20224;-85
2023/03/07 02:04:54;;;;;;;14.63;7.20;;;;;;;-145.69;100.00;52563.22;5116117;28;20201;-85
2023/03/07 02:07:26;;;;;;;15.73;6.90;;;;;;;-145.69;100.00;52571.13;5116271;28;20207;-85
2023/03/07 02:09:58;;;;;;;15.90;6.50;;;;;;;-145.69;100.00;52559.25;5114717;28;20197;-85
2023/03/07 02:12:27;;;;;;;16.83;6.97;;;;;;;-145.69;100.00;52602.81;5096916;28;20678;-85
2023/03/07 02:14:54;;;;;;;15.10;6.07;;;;;;;-145.69;100.00;52557.28;5101668;28;20194;-85
2023/03/07 02:17:21;;;;;;;16.37;6.47;;;;;;;-145.69;100.00;52596.88;5115578;28;20201;-85
2023/03/07 02:20:01;;;;;;;15.47;6.20;;;;;;;-145.69;100.00;52571.13;5115106;28;20671;-85
2023/03/07 02:22:27;;;;;;;18.07;7.13;;;;;;;-145.69;100.00;52559.25;5115963;28;20444;-85
2023/03/07 02:25:00;;;;;;;16.50;7.50;;;;;;;-145.69;100.00;52571.13;5115704;28;20189;-85
2023/03/07 02:27:31;;;;;;;15.07;6.97;;;;;;;-145.69;100.00;52559.25;5115440;28;20552;-85
2023/03/07 02:29:58;;;;;;;13.37;6.20;;;;;;;-145.69;100.00;52598.84;5115667;28;20582;-85
2023/03/07 02:32:26;;;;;;;17.27;7.10;;;;;;;-145.69;100.00;52559.25;5114950;28;20447;-85
2023/03/07 02:34:53;;;;;;;16.23;6.60;;;;;;;-145.69;100.00;52557.28;5115280;28;20212;-85
2023/03/07 02:37:25;;;;;;;17.13;6.20;;;;;;;-145.69;100.00;52563.22;5115246;28;20205;-85
2023/03/07 02:39:54;;;;;;;16.42;8.15;;;;;;;-145.69;100.00;52581.03;5114104;28;20443;-85
2023/03/07 02:42:23;;;;;;;14.47;6.47;;;;;;;-145.69;100.00;52561.22;5114943;28;20233;-85
2023/03/07 02:44:59;;;;;;;17.80;6.77;;;;;;;-145.69;100.00;52565.19;5114685;28;20196;-85
2023/03/07 02:47:25;;;;;;;14.63;6.60;;;;;;;-145.69;100.00;52563.22;5115788;28;20197;-84
2023/03/07 02:49:53;;;;;;;14.23;6.50;;;;;;;-145.69;100.00;52567.16;5115302;28;20197;-85
2023/03/07 02:52:21;;;;;;;16.63;6.80;;;;;;;-145.69;100.00;52575.09;5115611;28;20247;-85
2023/03/07 02:54:48;;;;;;;12.83;6.07;;;;;;;-145.69;100.00;52555.28;5115244;28;20205;-85
2023/03/07 02:57:16;;;;;;;12.77;6.07;;;;;;;-145.69;100.00;52608.75;5114970;28;20208;-84
2023/03/07 02:59:42;;;;;;;18.53;7.30;;;;;;;-145.69;100.00;52573.13;5114714;28;20204;-85
2023/03/07 03:02:12;;;;;;;13.40;6.40;;;;;;;-145.69;100.00;52543.41;5114540;28;20233;-85
2023/03/07 03:04:38;;;;;;;14.80;6.30;;;;;;;-145.69;100.00;52569.16;5114775;28;20197;-85
2023/03/07 03:07:05;;;;;;;16.17;6.33;;;;;;;-145.69;100.00;52577.06;5114769;28;20198;-85
2023/03/07 03:09:35;;;;;;;18.03;6.77;;;;;;;-145.69;100.00;52525.59;5114693;28;20642;-85
2023/03/07 03:12:01;;;;;;;17.23;6.60;;;;;;;-145.69;100.00;52567.16;5114337;28;20194;-84
2023/03/07 03:14:31;;;;;;;13.43;6.23;;;;;;;-145.69;100.00;52598.84;5114733;28;20205;-84
2023/03/07 03:16:57;;;;;;;14.67;6.50;;;;;;;-145.69;100.00;52561.22;5115149;28;20200;-85
2023/03/07 03:19:25;;;;;;;13.60;6.10;;;;;;;-145.69;100.00;52602.81;5114673;28;20296;-85
2023/03/07 03:21:52;;;;;;;15.47;6.67;;;;;;;-145.69;100.00;52555.28;5114569;28;20255;-85
2023/03/07 03:24:21;;;;;;;13.03;5.70;;;;;;;-145.69;100.00;52585.00;5113936;28;20192;-84
2023/03/07 03:26:48;;;;;;;15.07;6.40;;;;;;;-145.69;100.00;52539.44;5114444;28;20197;-85
2023/03/07 03:29:15;;;;;;;17.77;6.13;;;;;;;-145.69;100.00;52571.13;5114403;28;20201;-84
2023/03/07 03:31:41;;;;;;;17.30;6.53;;;;;;;-145.69;100.00;52553.31;5114208;28;20201;-85
2023/03/07 03:34:08;;;;;;;12.40;5.60;;;;;;;-145.69;100.00;52565.19;5114553;28;20197;-84
2023/03/07 03:36:36;;;;;;;12.73;5.87;;;;;;;-145.69;100.00;52567.16;5095810;28;20592;-85
2023/03/07 03:39:09;;;;;;;16.90;6.07;;;;;;;-145.69;100.00;52596.88;5114215;28;20193;-85
2023/03/07 03:41:36;;;;;;;15.77;5.67;;;;;;;-145.69;100.00;52559.25;5113675;28;20706;-85
2023/03/07 03:44:07;;;;;;;13.13;5.63;;;;;;;-145.69;100.00;52549.34;5114316;28;20284;-84
2023/03/07 03:46:34;;;;;;;16.97;5.97;;;;;;;-145.69;100.00;52577.06;5113170;28;20213;-84
2023/03/07 03:49:00;;;;;;;20.57;6.67;;;;;;;-145.69;100.00;52579.06;5113506;28;20686;-85
2023/03/07 03:51:29;;;;;;;14.27;6.90;;;;;;;-145.69;100.00;52565.19;5113853;28;20201;-85
2023/03/07 03:53:57;;;;;;;11.10;5.67;;;;;;;-145.69;100.00;52573.13;5112767;28;20201;-85
2023/03/07 03:56:26;;;;;;;14.93;6.57;;;;;;;-145.69;100.00;52604.81;5113417;28;20202;-84
2023/03/07 03:58:55;;;;;;;10.43;5.33;;;;;;;-145.69;100.00;52553.31;5113982;28;20205;-85
2023/03/07 04:01:28;;;;;;;14.63;5.97;;;;;;;-145.69;100.00;52555.28;5114221;28;20229;-84
2023/03/07 04:03:56;;;;;;;13.47;5.53;;;;;;;-145.69;100.00;52557.28;5113981;28;20448;-84
2023/03/07 04:06:26;;;;;;;15.97;6.17;;;;;;;-145.69;100.00;52557.28;5112609;28;20197;-84
2023/03/07 04:08:53;;;;;;;13.13;5.73;;;;;;;-145.69;100.00;52557.28;5095547;28;20194;-85
2023/03/07 04:11:25;;;;;;;14.77;5.70;;;;;;;-145.69;100.00;52535.47;5093646;28;20205;-84
2023/03/07 04:13:52;;;;;;;16.43;6.60;;;;;;;-145.69;100.00;52565.19;5093371;28;20198;-84
2023/03/07 04:16:21;;;;;;;12.20;5.60;;;;;;;-145.69;100.00;52598.84;5106225;28;20189;-84
2023/03/07 04:18:49;;;;;;;15.80;6.53;;;;;;;-145.69;100.00;52539.44;5113780;28;20644;-85
2023/03/07 04:21:15;;;;;;;14.67;5.80;;;;;;;-145.69;100.00;52551.31;5113452;28;20221;-84
2023/03/07 04:23:42;;;;;;;11.67;5.43;;;;;;;-145.69;100.00;52575.09;5113790;28;20208;-85
2023/03/07 04:26:10;;;;;;;13.90;6.57;;;;;;;-145.69;100.00;52588.97;5113506;28;20670;-84
2023/03/07 04:28:45;;;;;;;11.47;5.63;;;;;;;-145.69;100.00;52563.22;5113393;28;20205;-85
2023/03/07 04:31:14;;;;;;;14.43;5.47;;;;;;;-145.69;100.00;52571.13;5113439;28;20232;-84
2023/03/07 04:33:48;;;;;;;15.00;5.43;;;;;;;-145.69;100.00;52602.81;5113788;28;20201;-85
2023/03/07 04:36:16;;;;;;;15.47;5.83;;;;;;;-145.69;100.00;52594.91;5113723;28;20578;-85
2023/03/07 04:38:42;;;;;;;13.17;6.13;;;;;;;-145.69;100.00;52563.22;5113786;28;20563;-84
2023/03/07 04:41:12;;;;;;;15.10;6.00;;;;;;;-145.69;100.00;52586.97;5112316;28;20591;-84
2023/03/07 04:43:40;;;;;;;16.87;6.23;;;;;;;-145.69;100.00;52563.22;5113171;28;20225;-84
2023/03/07 04:46:08;;;;;;;16.07;5.73;;;;;;;-145.69;100.00;52579.06;5113175;28;20284;-84
2023/03/07 04:48:35;;;;;;;12.73;5.73;;;;;;;-145.69;100.00;52596.88;5112631;28;20232;-85
2023/03/07 04:51:04;;;;;;;14.40;5.73;;;;;;;-145.69;100.00;52573.13;5113271;28;20194;-84
2023/03/07 04:53:31;;;;;;;14.60;7.27;;;;;;;-145.69;100.00;52579.06;5112812;28;20506;-85
2023/03/07 04:55:58;;;;;;;12.97;6.20;;;;;;;-145.69;100.00;52569.16;5113229;28;20197;-84
2023/03/07 04:58:25;;;;;;;14.37;5.83;;;;;;;-145.69;100.00;52577.06;5113279;28;20258;-84
2023/03/07 05:00:55;;;;;;;12.97;5.70;;;;;;;-145.69;100.00;52573.13;5113543;28;20694;-85
2023/03/07 05:03:23;;;;;;;13.37;5.33;;;;;;;-145.69;100.00;52571.13;5113209;28;20189;-84
2023/03/07 05:05:49;;;;;;;16.60;6.53;;;;;;;-145.69;100.00;52577.06;5113273;28;20201;-84
2023/03/07 05:08:16;;;;;;;17.60;6.07;;;;;;;-145.69;100.00;52586.97;5096665;28;20197;-84
2023/03/07 05:10:42;;;;;;;13.80;5.97;;;;;;;-145.69;100.00;52598.84;5116847;28;20197;-84
2023/03/07 05:13:09;;;;;;;17.67;6.17;;;;;;;-145.69;100.00;52583.00;5116973;28;20254;-83
2023/03/07 05:15:36;;;;;;;13.93;6.07;;;;;;;-145.69;100.00;52571.13;5116417;28;20276;-84
2023/03/07 05:18:05;;;;;;;13.43;6.10;;;;;;;-145.69;100.00;52551.31;5116320;28;20194;-84
2023/03/07 05:20:32;;;;;;;14.03;6.47;;;;;;;-145.69;100.00;52569.16;5116633;28;20232;-84
2023/03/07 05:22:59;;;;;;;13.50;6.70;;;;;;;-145.69;100.00;52551.31;5116382;28;20268;-84
2023/03/07 05:25:28;;;;;;;14.70;6.07;;;;;;;-145.69;100.00;52577.06;5116115;28;20209;-84
2023/03/07 05:27:57;;;;;;;14.97;6.73;;;;;;;-145.69;100.00;52579.06;5116442;28;20209;-84
2023/03/07 05:30:23;;;;;;;16.37;6.10;;;;;;;-145.69;100.00;52598.84;5116448;28;20197;-84
2023/03/07 05:32:50;;;;;;;14.60;6.27;;;;;;;-145.69;100.00;52571.13;5116482;28;20205;-84
2023/03/07 05:35:19;;;;;;;15.77;6.60;;;;;;;-145.69;100.00;52590.94;5116461;28;20606;-84
2023/03/07 05:37:49;;;;;;;22.40;7.20;;;;;;;-145.69;100.00;52606.78;5116051;28;20768;-84
2023/03/07 05:40:15;;;;;;;16.37;7.07;;;;;;;-145.69;100.00;52598.84;5116183;28;20199;-83
2023/03/07 05:42:42;;;;;;;15.83;6.57;;;;;;;-145.69;100.00;52555.28;5116162;28;20595;-84
2023/03/07 05:45:10;;;;;;;14.97;6.70;;;;;;;-145.69;100.00;52565.19;5116201;28;20201;-84
2023/03/07 05:47:37;;;;;;;14.23;6.47;;;;;;;-145.69;100.00;52581.03;5115939;28;20189;-84
2023/03/07 05:50:05;;;;;;;13.97;6.80;;;;;;;-145.69;100.00;52592.91;5115961;28;20193;-83
2023/03/07 05:52:33;;;;;;;18.13;7.53;;;;;;;-145.69;100.00;52598.84;5115644;28;20567;-84
2023/03/07 05:55:00;;;;;;;17.33;7.27;;;;;;;-145.69;100.00;52555.28;5116103;28;20197;-83
2023/03/07 05:57:30;;;;;;;19.30;7.30;;;;;;;-145.69;100.00;52555.28;5115853;28;20296;-84
2023/03/07 05:59:58;;;;;;;18.93;7.03;;;;;;;-145.69;100.00;52565.19;5115757;28;20229;-84
2023/03/07 06:02:25;;;;;;;17.47;6.50;;;;;;;-145.69;100.00;52575.09;5115673;28;20699;-83
2023/03/07 06:04:51;;;;;;;14.23;6.27;;;;;;;-145.69;100.00;52553.31;5115089;28;20525;-83
2023/03/07 06:07:17;;;;;;;15.70;5.77;;;;;;;-145.69;100.00;52588.97;5115771;28;20194;-83
2023/03/07 06:09:45;;;;;;;16.07;6.57;;;;;;;-145.69;100.00;52583.00;5115257;28;20201;-83
2023/03/07 06:12:12;;;;;;;15.73;6.50;;;;;;;-145.69;100.00;52579.06;5115549;28;20198;-83
2023/03/07 06:14:38;;;;;;;14.43;6.43;;;;;;;-145.69;100.00;52583.00;5109255;28;20208;-83
2023/03/07 06:17:05;;;;;;;15.70;6.83;;;;;;;-145.69;100.00;52573.13;5115031;28;20206;-84
2023/03/07 06:19:32;;;;;;;16.93;6.80;;;;;;;-145.69;100.00;52579.06;5114829;28;20197;-84
2023/03/07 06:21:59;;;;;;;14.10;6.83;;;;;;;-145.69;100.00;52604.81;5115425;28;20222;-84
2023/03/07 06:24:26;;;;;;;19.10;6.37;;;;;;;-145.69;100.00;52598.84;5115385;28;20209;-84
2023/03/07 06:26:53;;;;;;;19.67;7.07;;;;;;;-145.69;100.00;52555.28;5115370;28;20208;-84
2023/03/07 06:29:23;;;;;;;13.50;6.50;;;;;;;-145.69;100.00;52571.13;5114894;28;20648;-84
2023/03/07 06:31:49;;;;;;;16.23;6.97;;;;;;;-145.69;100.00;52563.22;5115130;28;20205;-84
2023/03/07 06:34:16;;;;;;;16.63;7.00;;;;;;;-145.69;100.00;52590.94;5114840;28;20598;-84
2023/03/07 06:36:43;;;;;;;16.67;7.47;;;;;;;-145.69;100.00;52543.41;5115273;28;20201;-84
2023/03/07 06:39:09;;;;;;;19.17;6.40;;;;;;;-145.69;100.00;52567.16;5115223;28;20193;-84
2023/03/07 06:41:38;;;;;;;18.20;7.87;;;;;;;-145.69;100.00;52598.84;5114347;28;20225;-84
2023/03/07 06:44:06;;;;;;;15.07;5.93;;;;;;;-145.69;100.00;52567.16;5115308;28;20423;-84
2023/03/07 06:46:33;;;;;;;18.13;7.37;;;;;;;-145.69;100.00;52559.25;5114741;28;20644;-85
2023/03/07 06:48:59;;;;;;;16.03;6.97;;;;;;;-145.69;100.00;52602.81;5115452;28;20205;-84
2023/03/07 06:51:26;;;;;;;14.93;6.30;;;;;;;-145.69;100.00;52573.13;5114799;28;20220;-84
2023/03/07 06:53:52;;;;;;;18.53;7.03;;;;;;;-145.69;100.00;52565.19;5115790;28;20209;-84
2023/03/07 06:56:19;;;;;;;15.77;6.03;;;;;;;-145.69;100.00;52561.22;5114689;28;20292;-84
2023/03/07 06:58:45;;;;;;;12.03;5.57;;;;;;;-145.69;100.00;52596.88;5096767;28;20571;-84
2023/03/07 07:01:17;;;;;;;21.10;6.40;;;;;;;-145.69;100.00;52563.22;5114515;28;20655;-84
2023/03/07 07:03:44;;;;;;;14.03;5.93;;;;;;;-145.69;100.00;52549.34;5114184;28;20225;-84
2023/03/07 07:06:10;;;;;;;17.60;6.30;;;;;;;-145.69;100.00;52543.41;5114629;28;20201;-84
2023/03/07 07:08:37;;;;;;;15.23;5.80;;;;;;;-145.69;100.00;52559.25;5114218;28;20678;-83
2023/03/07 07:11:04;;;;;;;14.27;5.80;;;;;;;-145.69;100.00;52515.69;5114340;28;20204;-84
2023/03/07 07:13:30;;;;;;;13.27;6.30;;;;;;;-145.69;100.00;52555.28;5113956;28;20204;-84
2023/03/07 07:15:57;;;;;;;11.33;5.53;;;;;;;-145.69;100.00;52549.34;5114424;28;20205;-83
2023/03/07 07:18:25;;;;;;;15.90;6.40;;;;;;;-145.69;100.00;52569.16;5114247;28;20203;-83
2023/03/07 07:20:54;;;;;;;16.73;6.07;;;;;;;-145.69;100.00;52573.13;5114283;28;20197;-84
2023/03/07 07:23:20;;;;;;;11.30;5.53;;;;;;;-145.69;100.00;52527.56;5114245;28;20225;-83
2023/03/07 07:25:47;;;;;;;18.97;6.30;;;;;;;-145.69;100.00;52586.97;5114020;28;20197;-84
2023/03/07 07:28:13;;;;;;;11.97;5.73;;;;;;;-145.69;100.00;52529.53;5114128;28;20559;-83
2023/03/07 07:30:40;;;;;;;11.70;5.73;;;;;;;-145.69;100.00;52577.06;5113829;28;20194;-83
2023/03/07 07:33:06;;;;;;;15.90;5.70;;;;;;;-145.69;98.74;52549.34;5113243;28;20224;-84
2023/03/07 07:35:34;;;;;;;11.70;5.70;;;;;;;-145.69;99.31;52527.56;5114183;28;20197;-84
2023/03/07 07:38:01;;;;;;;11.40;6.03;;;;;;;-145.69;97.77;52563.22;5113353;28;20678;-84
2023/03/07 07:40:27;;;;;;;13.73;5.23;;;;;;;-145.69;98.62;52573.13;5114119;28;20197;-84
2023/03/07 07:42:54;;;;;;;12.63;5.23;;;;;;;-145.69;97.34;52543.41;5113345;28;20250;-84
2023/03/07 07:45:20;;;;;;;12.60;5.97;;;;;;;-145.69;94.78;52579.06;5114048;28;20209;-84
2023/03/07 07:47:48;;;;;;;12.53;5.57;;;;;;;-145.69;93.43;52543.41;5113944;28;20197;-85
2023/03/07 07:50:15;;;;;;;11.50;5.73;;;;;;;-145.69;96.34;52535.47;5114380;28;20207;-84
2023/03/07 07:52:43;;;;;;;13.93;5.53;;;;;;;-145.69;92.30;52531.53;5114118;28;20204;-84
2023/03/07 07:55:12;;;;;;;10.73;5.17;;;;;;;-145.69;89.64;52539.44;5113750;28;20648;-84
2023/03/07 07:57:39;;;;;;;12.97;5.73;;;;;;;-145.69;92.13;52575.09;5114088;28;20205;-84
2023/03/07 08:00:07;;;;;;;12.03;5.20;;;;;;;-145.69;91.92;52557.28;5114231;28;20194;-84
2023/03/07 08:02:34;;;;;;;13.80;5.20;;;;;;;-145.69;89.45;52549.34;5113740;28;20266;-84
2023/03/07 08:05:00;;;;;;;11.20;4.80;;;;;;;-145.69;90.65;52581.03;5113458;28;20212;-84
2023/03/07 08:07:27;;;;;;;10.60;5.50;;;;;;;-145.69;92.74;52517.66;5113464;28;20208;-84
2023/03/07 08:09:55;;;;;;;12.10;5.40;;;;;;;-145.69;89.72;52547.38;5113232;28;20221;-84
2023/03/07 08:12:21;;;;;;;14.40;5.60;;;;;;;-145.69;89.90;52551.31;5113334;28;20210;-83
2023/03/07 08:14:48;;;;;;;34.30;11.10;;;;;;;-145.69;91.36;52523.59;5113766;28;20306;-83
2023/03/07 08:17:14;;;;;;;14.77;5.63;;;;;;;-145.69;90.57;52559.25;5106382;28;20641;-84
2023/03/07 08:19:41;;;;;;;12.83;5.10;;;;;;;-145.69;88.20;52543.41;5093262;28;20202;-83
2023/03/07 08:22:07;;;;;;;13.07;5.90;;;;;;;-145.69;90.00;52555.28;5093092;28;20202;-83
2023/03/07 08:24:34;;;;;;;11.10;5.03;;;;;;;-145.69;88.55;52543.41;5109574;28;20186;-84
2023/03/07 08:27:02;;;;;;;8.60;4.77;;;;;;;-145.69;85.46;52539.44;5114970;28;20197;-83
2023/03/07 08:29:28;;;;;;;11.80;4.80;;;;;;;-145.69;86.58;52535.47;5115026;28;20560;-83
2023/03/07 08:31:55;;;;;;;12.23;6.13;;;;;;;-145.69;85.24;52531.53;5114413;28;20198;-81
2023/03/07 08:34:21;;;;;;;10.87;4.97;;;;;;;-145.69;88.99;52547.38;5115159;28;20194;-82
2023/03/07 08:36:48;;;;;;;11.63;5.20;;;;;;;-145.69;83.24;52555.28;5114103;28;20193;-81
2023/03/07 08:39:14;;;;;;;17.33;5.90;;;;;;;-145.69;86.12;52531.53;5114887;28;20197;-83
2023/03/07 08:41:41;;;;;;;11.77;5.33;;;;;;;-145.69;80.02;52547.38;5113531;28;20610;-83
2023/03/07 08:44:08;;;;;;;8.47;4.50;;;;;;;-145.69;78.22;52537.47;5115943;28;20694;-84
2023/03/07 08:46:35;;;;;;;9.27;4.93;;;;;;;-145.69;78.11;52541.44;5117988;28;20201;-83
2023/03/07 08:49:02;;;;;;;9.83;4.33;;;;;;;-145.69;76.21;52545.38;5117859;28;20197;-83
2023/03/07 08:51:28;;;;;;;9.90;4.90;;;;;;;-145.69;79.20;52537.47;5116991;28;20647;-83
2023/03/07 08:53:55;;;;;;;10.93;4.90;;;;;;;-145.69;76.14;52557.28;5116868;28;20664;-84
2023/03/07 08:56:21;;;;;;;11.73;5.03;;;;;;;-145.69;76.19;52527.56;5116876;28;20690;-84
2023/03/07 08:58:48;;;;;;;11.93;5.13;;;;;;;-145.69;81.01;52551.31;5116904;28;20189;-84
2023/03/07 09:01:16;;;;;;;14.60;5.20;;;;;;;-145.69;82.21;52487.97;5116787;28;20594;-83
2023/03/07 09:03:43;;;;;;;10.80;5.33;;;;;;;-145.69;75.92;52553.31;5117610;28;20232;-84
2023/03/07 09:06:15;;;;;;;13.10;5.60;;;;;;;-145.69;75.97;52507.75;5116787;28;20203;-84
2023/03/07 09:08:42;;;;;;;9.90;5.03;;;;;;;-145.69;72.46;52547.38;5116189;28;20644;-83
2023/03/07 09:11:09;;;;;;;11.60;5.30;;;;;;;-145.69;75.95;52539.44;5116730;28;20201;-84
2023/03/07 09:13:35;;;;;;;13.97;5.83;;;;;;;-145.69;79.05;52523.59;5116686;28;20197;-83
2023/03/07 09:16:04;;;;;;;9.97;5.00;;;;;;;-145.69;70.32;52527.56;5116183;28;20647;-83
2023/03/07 09:18:32;;;;;;;15.20;5.97;;;;;;;-145.69;77.37;52525.59;5116174;28;20201;-84
2023/03/07 09:20:59;;;;;;;11.27;5.40;;;;;;;-145.69;70.28;52555.28;5115840;28;20217;-83
2023/03/07 09:23:25;;;;;;;13.80;5.33;;;;;;;-145.69;68.35;52523.59;5116220;28;20227;-84
2023/03/07 09:25:52;;;;;;;10.07;5.37;;;;;;;-145.69;69.44;52535.47;5117291;28;20198;-83
2023/03/07 09:28:19;;;;;;;13.23;5.40;;;;;;;-145.69;69.80;52523.59;5117541;28;20643;-83
2023/03/07 09:30:45;;;;;;;15.47;5.50;;;;;;;-145.69;65.76;52519.63;5116030;28;20578;-83
2023/03/07 09:33:12;;;;;;;14.77;6.10;;;;;;;-145.69;69.33;52523.59;5116377;28;20198;-84
2023/03/07 09:35:39;;;;;;;13.20;5.87;;;;;;;-145.69;69.02;52543.41;5117462;28;20197;-84
2023/03/07 09:38:06;;;;;;;15.07;6.23;;;;;;;-145.69;65.82;52531.53;5117064;28;20204;-84
2023/03/07 09:40:33;;;;;;;12.87;5.37;;;;;;;-145.69;67.17;52541.44;5116158;28;20648;-84
2023/03/07 09:43:07;;;;;;;12.20;5.90;;;;;;;-145.69;70.63;52519.63;5116123;28;20237;-84
2023/03/07 09:45:56;;;;;;;11.87;5.47;;;;;;;-145.69;74.52;52525.59;5116353;28;20670;-85
2023/03/07 09:48:57;;;;;;;13.30;5.90;;;;;;;-145.69;65.46;52507.75;5116472;28;20200;-85
2023/03/07 09:51:30;;;;;;;11.30;5.33;;;;;;;-145.69;71.45;52507.75;5116582;28;20559;-85
2023/03/07 09:54:00;;;;;;;15.17;6.50;;;;;;;-145.69;66.68;52551.31;5116160;28;20204;-85
2023/03/07 09:56:31;;;;;;;15.90;5.97;;;;;;;-145.69;64.46;52523.59;5115182;28;20193;-86
2023/03/07 09:59:03;;;;;;;13.60;6.13;;;;;;;-145.69;62.47;52507.75;5116558;28;20207;-85
2023/03/07 10:01:33;;;;;;;11.80;5.47;;;;;;;-145.69;67.47;52539.44;5098993;28;20201;-85
2023/03/07 10:04:01;;;;;;;11.67;6.03;;;;;;;-145.69;59.24;52495.88;5116516;28;20709;-85
2023/03/07 10:06:33;;;;;;;17.10;5.37;;;;;;;-145.69;62.81;52535.47;5116042;28;20201;-86
2023/03/07 10:09:01;;;;;;;12.67;5.83;;;;;;;-145.69;60.72;52517.66;5111764;28;20197;-86
2023/03/07 10:11:54;;;;;;;11.03;5.10;;;;;;;-145.69;53.98;52480.03;5115882;28;20198;-85
2023/03/07 10:14:41;;;;;;;11.47;5.77;;;;;;;-145.69;54.99;52547.38;5116328;28;20201;-86
2023/03/07 10:17:19;;;;;;;9.70;4.63;;;;;;;-145.69;55.04;52505.78;5116699;28;20548;-85
2023/03/07 10:19:49;;;;;;;13.40;5.97;;;;;;;-145.69;56.62;52515.69;5116074;28;20193;-86
2023/03/07 10:22:26;;;;;;;11.57;6.03;;;;;;;-145.69;55.62;52523.59;5116157;28;20243;-85
2023/03/07 10:25:14;;;;;;;12.40;5.80;;;;;;;-145.69;58.38;52509.75;5115920;28;20232;-86
2023/03/07 10:27:40;;;;;;;17.73;5.77;;;;;;;-145.69;54.04;52499.84;5116076;28;20284;-86
2023/03/07 10:30:16;;;;;;;14.23;5.87;;;;;;;-145.69;52.72;52491.91;5115680;28;20667;-85
2023/03/07 10:32:45;;;;;;;12.87;6.20;;;;;;;-145.69;54.11;52521.63;5115500;28;20197;-85
2023/03/07 10:35:19;;;;;;;14.70;5.80;;;;;;;-145.69;55.74;52487.97;5115958;28;20201;-85
2023/03/07 10:37:50;;;;;;;13.00;5.77;;;;;;;-145.69;54.18;52509.75;5115037;28;20681;-86
2023/03/07 10:40:26;;;;;;;15.47;5.73;;;;;;;-145.69;56.15;52476.06;5115418;28;20201;-84
2023/03/07 10:42:54;;;;;;;17.13;5.73;;;;;;;-145.69;56.57;52503.81;5115050;28;20232;-85
2023/03/07 10:45:20;;;;;;;12.67;5.80;;;;;;;-145.69;56.13;52513.69;5116241;28;20201;-85
2023/03/07 10:47:47;;;;;;;16.57;6.23;;;;;;;-145.69;60.07;52503.81;5115196;28;20204;-85
2023/03/07 10:50:26;;;;;;;15.13;5.77;;;;;;;-145.69;57.81;52511.72;5115337;28;20193;-85
2023/03/07 10:52:57;;;;;;;14.90;5.77;;;;;;;-145.69;51.09;52493.91;5115522;28;20201;-86
2023/03/07 10:55:41;;;;;;;11.80;5.13;;;;;;;-145.69;51.98;52482.00;5115470;28;20201;-85
2023/03/07 10:58:21;;;;;;;13.07;5.37;;;;;;;-145.69;53.12;52482.00;5116092;28;20198;-85
2023/03/07 11:00:59;;;;;;;12.13;6.03;;;;;;;-145.69;53.01;52503.81;5115240;28;20198;-85
2023/03/07 11:03:30;;;;;;;13.83;6.03;;;;;;;-145.69;55.02;52491.91;5115149;28;20221;-85
2023/03/07 11:05:58;;;;;;;13.73;6.50;;;;;;;-145.69;53.34;52503.81;5115436;28;20255;-86
2023/03/07 11:08:32;;;;;;;14.90;6.20;;;;;;;-145.69;53.80;52531.53;5114069;28;20193;-84
2023/03/07 11:11:00;;;;;;;13.17;5.77;;;;;;;-145.69;51.82;52495.88;5114178;28;20602;-84